Time;durP1;ratioP1;P1;durP2;ratioP2;P2;SDS_P1;SDS_P2;PMS_P1;PMS_P2;Temp;Humidity;BMP_temperature;BMP_pressure;BME280_temperature;BME280_humidity;BME280_pressure;Samples;Min_cycle;Max_cycle;Signal;HPM_P1;HPM_P2
2023/09/29 00:00:23;;;;;;;;;;;;;;;19.45;80.85;99718.84;5093023;28;19920;-68
2023/09/29 00:02:50;;;;;;;;;;;;;;;19.08;83.30;99717.63;5095820;28;19955;-68
2023/09/29 00:05:17;;;;;;;;;;;;;;;18.77;84.73;99713.19;5085313;28;19927;-68
2023/09/29 00:07:43;;;;;;;;;;;;;;;18.72;85.45;99719.19;5075496;28;19927;-68
2023/09/29 00:10:10;;;;;;;;;;;;;;;18.62;86.57;99713.00;5075488;28;19912;-68
2023/09/29 00:12:39;;;;;;;;;;;;;;;18.59;86.61;99716.59;5075361;28;20362;-68
2023/09/29 00:15:05;;;;;;;;;;;;;;;18.50;87.75;99714.03;5075458;28;20433;-68
2023/09/29 00:17:31;;;;;;;;;;;;;;;18.48;88.85;99716.44;5081481;28;19916;-68
2023/09/29 00:19:57;;;;;;;;;;;;;;;18.32;89.99;99716.63;5093912;28;19916;-68
2023/09/29 00:22:22;;;;;;;;;;;;;;;18.23;91.14;99714.06;5095509;28;19959;-68
2023/09/29 00:24:47;;;;;;;;;;;;;;;18.38;90.49;99717.09;5090174;28;20306;-68
2023/09/29 00:27:13;;;;;;;;;;;;;;;18.10;92.18;99723.97;5075040;28;19916;-68
2023/09/29 00:29:39;;;;;;;;;;;;;;;18.05;92.06;99724.31;5087595;28;20022;-68
2023/09/29 00:32:05;;;;;;;;;;;;;;;18.33;90.95;99721.06;5093480;28;19916;-68
2023/09/29 00:34:30;;;;;;;;;;;;;;;18.44;89.58;99720.41;5093202;28;19924;-68
2023/09/29 00:36:55;;;;;;;;;;;;;;;18.60;88.07;99706.06;5094084;28;19912;-68
2023/09/29 00:39:21;;;;;;;;;;;;;;;18.40;87.56;99716.72;5074912;28;19919;-68
2023/09/29 00:41:49;;;;;;;;;;;;;;;18.29;88.04;99716.59;5088401;28;19916;-68
2023/09/29 00:44:14;;;;;;;;;;;;;;;18.47;87.30;99709.16;5094617;28;20305;-68
2023/09/29 00:46:39;;;;;;;;;;;;;;;18.51;86.57;99706.38;5074996;28;19916;-68
2023/09/29 00:49:05;;;;;;;;;;;;;;;18.65;85.55;99709.38;5074346;28;19913;-68
2023/09/29 00:51:31;;;;;;;;;;;;;;;18.59;85.24;99705.28;5080865;28;19920;-68
2023/09/29 00:53:57;;;;;;;;;;;;;;;18.70;84.89;99713.06;5075968;28;19954;-68
2023/09/29 00:56:23;;;;;;;;;;;;;;;18.78;83.88;99709.97;5094553;28;19986;-68
2023/09/29 00:58:48;;;;;;;;;;;;;;;18.75;83.64;99709.91;5094842;28;20424;-68
2023/09/29 01:01:14;;;;;;;;;;;;;;;18.82;82.93;99709.19;5093397;28;19920;-68
2023/09/29 01:03:39;;;;;;;;;;;;;;;18.84;81.91;99712.44;5094290;28;20455;-68
2023/09/29 01:06:08;;;;;;;;;;;;;;;18.60;82.97;99714.56;5081181;28;20450;-68
2023/09/29 01:08:35;;;;;;;;;;;;;;;18.67;82.52;99700.53;5091381;28;19920;-68
2023/09/29 01:11:01;;;;;;;;;;;;;;;18.65;83.16;99709.38;5094692;28;19912;-68
2023/09/29 01:13:28;;;;;;;;;;;;;;;18.59;82.97;99702.44;5091020;28;19916;-68
2023/09/29 01:15:54;;;;;;;;;;;;;;;18.61;83.17;99702.88;5092055;28;20390;-68
2023/09/29 01:18:20;;;;;;;;;;;;;;;18.46;83.68;99699.03;5094275;28;19915;-68
2023/09/29 01:20:45;;;;;;;;;;;;;;;18.36;84.69;99696.84;5094507;28;19912;-69
2023/09/29 01:23:10;;;;;;;;;;;;;;;18.33;84.83;99700.47;5088683;28;19917;-68
2023/09/29 01:25:36;;;;;;;;;;;;;;;18.41;84.67;99704.19;5088597;28;20357;-68
2023/09/29 01:28:05;;;;;;;;;;;;;;;18.50;84.25;99702.72;5091267;28;19986;-68
2023/09/29 01:30:30;;;;;;;;;;;;;;;18.54;84.23;99704.78;5093909;28;19916;-68
2023/09/29 01:32:59;;;;;;;;;;;;;;;18.49;84.16;99697.44;5093884;28;20046;-68
2023/09/29 01:35:24;;;;;;;;;;;;;;;18.51;84.76;99695.84;5092835;28;19913;-68
2023/09/29 01:37:50;;;;;;;;;;;;;;;18.57;84.29;99696.31;5094156;28;19919;-68
2023/09/29 01:40:20;;;;;;;;;;;;;;;18.65;84.13;99700.09;5092830;28;19923;-68
2023/09/29 01:42:46;;;;;;;;;;;;;;;18.74;83.81;99696.97;5092350;28;20007;-69
2023/09/29 01:45:11;;;;;;;;;;;;;;;18.51;84.90;99697.88;5073650;28;20072;-68
2023/09/29 01:47:42;;;;;;;;;;;;;;;18.73;83.57;99698.16;5089286;28;20367;-68
2023/09/29 01:50:08;;;;;;;;;;;;;;;18.51;84.57;99700.72;5093776;28;19967;-68
2023/09/29 01:52:33;;;;;;;;;;;;;;;18.58;84.37;99697.97;5093151;28;19920;-68
2023/09/29 01:55:00;;;;;;;;;;;;;;;18.74;83.59;99700.59;5087971;28;19916;-68
2023/09/29 01:57:25;;;;;;;;;;;;;;;18.89;82.76;99701.59;5093666;28;19951;-68
2023/09/29 01:59:51;;;;;;;;;;;;;;;18.84;82.81;99704.78;5093458;28;19974;-68
2023/09/29 02:02:16;;;;;;;;;;;;;;;18.98;82.02;99706.16;5091859;28;19912;-68
2023/09/29 02:04:41;;;;;;;;;;;;;;;18.96;81.90;99698.03;5093166;28;19927;-68
2023/09/29 02:07:07;;;;;;;;;;;;;;;19.08;81.34;99708.31;5092681;28;19947;-68
2023/09/29 02:09:34;;;;;;;;;;;;;;;19.15;80.81;99705.56;5093083;28;19916;-68
2023/09/29 02:12:01;;;;;;;;;;;;;;;19.05;81.12;99704.25;5093511;28;19919;-68
2023/09/29 02:14:26;;;;;;;;;;;;;;;18.76;81.99;99697.38;5092952;28;19916;-68
2023/09/29 02:16:51;;;;;;;;;;;;;;;18.67;82.15;99701.31;5092071;28;19912;-68
2023/09/29 02:19:17;;;;;;;;;;;;;;;18.54;82.72;99690.63;5090597;28;19916;-68
2023/09/29 02:21:42;;;;;;;;;;;;;;;18.44;82.82;99694.94;5089853;28;19917;-68
2023/09/29 02:24:08;;;;;;;;;;;;;;;18.29;83.32;99689.06;5088542;28;20042;-68
2023/09/29 02:26:34;;;;;;;;;;;;;;;18.33;82.52;99689.94;5079113;28;19998;-68
2023/09/29 02:29:00;;;;;;;;;;;;;;;18.27;82.63;99685.81;5093139;28;19973;-70
2023/09/29 02:31:26;;;;;;;;;;;;;;;18.15;83.19;99684.00;5091801;28;20365;-69
2023/09/29 02:33:53;;;;;;;;;;;;;;;18.16;83.16;99685.66;5083395;28;19919;-69
2023/09/29 02:36:18;;;;;;;;;;;;;;;18.29;82.55;99689.06;5085887;28;20371;-70
2023/09/29 02:38:44;;;;;;;;;;;;;;;18.28;82.58;99692.28;5072815;28;19917;-69
2023/09/29 02:41:09;;;;;;;;;;;;;;;18.20;82.82;99688.53;5072460;28;19912;-69
2023/09/29 02:43:34;;;;;;;;;;;;;;;18.02;83.90;99694.72;5072478;28;19944;-71
2023/09/29 02:46:00;;;;;;;;;;;;;;;17.89;84.25;99682.78;5071131;28;19917;-70
2023/09/29 02:48:27;;;;;;;;;;;;;;;17.73;85.12;99699.91;5071140;28;19956;-69
2023/09/29 02:50:53;;;;;;;;;;;;;;;17.85;84.97;99696.06;5073116;28;19916;-69
2023/09/29 02:53:18;;;;;;;;;;;;;;;17.75;85.11;99688.22;5078955;28;19917;-69
2023/09/29 02:55:46;;;;;;;;;;;;;;;17.69;85.61;99707.53;5081782;28;19919;-76
2023/09/29 02:58:12;;;;;;;;;;;;;;;17.83;84.47;99704.13;5081157;28;20377;-76
2023/09/29 03:00:39;;;;;;;;;;;;;;;17.80;84.58;99705.69;5071966;28;20051;-76
2023/09/29 03:03:05;;;;;;;;;;;;;;;17.66;85.14;99702.63;5072301;28;20387;-78
2023/09/29 03:05:31;;;;;;;;;;;;;;;17.59;85.72;99705.31;5072242;28;20392;-75
2023/09/29 03:07:56;;;;;;;;;;;;;;;17.66;85.13;99709.09;5071192;28;19956;-75
2023/09/29 03:10:25;;;;;;;;;;;;;;;17.53;86.07;99707.66;5070487;28;20267;-78
2023/09/29 03:12:50;;;;;;;;;;;;;;;17.64;85.68;99705.03;5072004;28;20406;-74
2023/09/29 03:15:16;;;;;;;;;;;;;;;17.75;85.13;99696.72;5071947;28;19913;-73
2023/09/29 03:17:45;;;;;;;;;;;;;;;17.74;84.90;99698.72;5072017;28;19913;-77
2023/09/29 03:20:12;;;;;;;;;;;;;;;18.01;83.89;99701.56;5073640;28;19919;-77
2023/09/29 03:22:41;;;;;;;;;;;;;;;17.97;82.89;99686.53;5090189;28;19923;-77
2023/09/29 03:25:07;;;;;;;;;;;;;;;18.04;83.00;99703.66;5092014;28;19920;-78
2023/09/29 03:27:34;;;;;;;;;;;;;;;18.02;82.91;99702.38;5090443;28;19916;-76
2023/09/29 03:30:00;;;;;;;;;;;;;;;17.81;84.42;99701.66;5091917;28;19916;-78
2023/09/29 03:32:26;;;;;;;;;;;;;;;17.90;84.07;99694.94;5090718;28;19919;-79
2023/09/29 03:34:52;;;;;;;;;;;;;;;17.79;84.90;99697.56;5091163;28;19916;-75
2023/09/29 03:37:18;;;;;;;;;;;;;;;17.57;86.27;99702.06;5092026;28;20413;-81
2023/09/29 03:39:43;;;;;;;;;;;;;;;17.68;86.33;99694.56;5091925;28;20010;-77
2023/09/29 03:42:09;;;;;;;;;;;;;;;17.63;86.63;99704.19;5089943;28;19920;-80
2023/09/29 03:44:34;;;;;;;;;;;;;;;17.80;85.94;99694.38;5082455;28;19927;-81
2023/09/29 03:47:00;;;;;;;;;;;;;;;17.90;85.51;99694.94;5085073;28;19966;-78
2023/09/29 03:49:25;;;;;;;;;;;;;;;17.94;85.00;99695.78;5075000;28;19917;-77
2023/09/29 03:51:51;;;;;;;;;;;;;;;18.13;84.28;99689.25;5088190;28;19989;-80
2023/09/29 03:54:18;;;;;;;;;;;;;;;18.10;84.17;99699.34;5076625;28;19919;-80
2023/09/29 03:56:43;;;;;;;;;;;;;;;18.02;84.31;99697.56;5083225;28;19927;-77
2023/09/29 03:59:09;;;;;;;;;;;;;;;17.80;85.13;99697.19;5091840;28;20401;-78
2023/09/29 04:01:34;;;;;;;;;;;;;;;17.74;85.39;99698.72;5091587;28;19974;-78
2023/09/29 04:04:01;;;;;;;;;;;;;;;17.85;84.76;99696.06;5091305;28;20411;-77
2023/09/29 04:06:26;;;;;;;;;;;;;;;17.91;84.32;99696.56;5091669;28;19912;-77
2023/09/29 04:08:51;;;;;;;;;;;;;;;17.72;84.20;99695.44;5091249;28;20305;-77
2023/09/29 04:11:17;;;;;;;;;;;;;;;17.88;83.23;99703.00;5079057;28;19931;-77
2023/09/29 04:13:43;;;;;;;;;;;;;;;17.85;82.30;99689.59;5087625;28;19950;-76
2023/09/29 04:16:08;;;;;;;;;;;;;;;17.91;82.15;99694.53;5084389;28;19916;-78
2023/09/29 04:18:34;;;;;;;;;;;;;;;17.92;81.73;99689.72;5072673;28;19916;-77
2023/09/29 04:21:02;;;;;;;;;;;;;;;17.95;81.58;99686.09;5080023;28;19916;-77
2023/09/29 04:23:28;;;;;;;;;;;;;;;17.92;81.28;99686.88;5081446;28;20011;-76
2023/09/29 04:25:53;;;;;;;;;;;;;;;17.89;81.05;99688.44;5069942;28;20011;-76
2023/09/29 04:28:19;;;;;;;;;;;;;;;17.78;81.05;99693.94;5071975;28;19916;-76
2023/09/29 04:30:44;;;;;;;;;;;;;;;17.82;80.67;99694.00;5085800;28;19923;-76
2023/09/29 04:33:10;;;;;;;;;;;;;;;17.80;81.42;99694.38;5071511;28;19923;-77
2023/09/29 04:35:35;;;;;;;;;;;;;;;17.99;80.40;99701.16;5091468;28;19919;-76
2023/09/29 04:38:01;;;;;;;;;;;;;;;18.11;79.58;99705.78;5091012;28;19923;-76
2023/09/29 04:40:27;;;;;;;;;;;;;;;18.08;79.43;99693.22;5091419;28;19916;-77
2023/09/29 04:42:52;;;;;;;;;;;;;;;18.12;79.60;99700.97;5093867;28;20044;-78
2023/09/29 04:45:17;;;;;;;;;;;;;;;18.18;78.95;99702.25;5093337;28;19967;-74
2023/09/29 04:47:43;;;;;;;;;;;;;;;18.09;79.36;99700.50;5094683;28;19919;-73
2023/09/29 04:50:08;;;;;;;;;;;;;;;18.14;79.36;99704.22;5090063;28;19916;-73
2023/09/29 04:52:35;;;;;;;;;;;;;;;18.28;78.86;99698.78;5093895;28;19915;-77
2023/09/29 04:55:00;;;;;;;;;;;;;;;18.12;79.31;99703.78;5075112;28;19970;-76
2023/09/29 04:57:25;;;;;;;;;;;;;;;18.07;79.71;99702.91;5079941;28;19916;-74
2023/09/29 04:59:51;;;;;;;;;;;;;;;17.98;80.03;99702.34;5094932;28;19920;-75
2023/09/29 05:02:16;;;;;;;;;;;;;;;18.00;80.10;99705.59;5094832;28;19915;-75
2023/09/29 05:04:41;;;;;;;;;;;;;;;18.02;79.84;99708.88;5086410;28;20045;-73
2023/09/29 05:07:07;;;;;;;;;;;;;;;17.90;80.32;99703.41;5085361;28;19966;-72
2023/09/29 05:09:32;;;;;;;;;;;;;;;17.93;80.26;99697.81;5074449;28;19912;-74
2023/09/29 05:11:57;;;;;;;;;;;;;;;18.13;79.95;99702.59;5074325;28;19916;-73
2023/09/29 05:14:23;;;;;;;;;;;;;;;18.04;80.13;99706.50;5087118;28;20322;-72
2023/09/29 05:16:49;;;;;;;;;;;;;;;17.97;80.46;99703.53;5093180;28;19955;-74
2023/09/29 05:19:15;;;;;;;;;;;;;;;18.02;80.54;99702.38;5077058;28;19916;-73
2023/09/29 05:21:40;;;;;;;;;;;;;;;18.07;80.15;99699.28;5083817;28;19923;-73
2023/09/29 05:24:06;;;;;;;;;;;;;;;18.14;80.13;99715.56;5074106;28;19912;-73
2023/09/29 05:26:31;;;;;;;;;;;;;;;18.16;80.12;99711.16;5084659;28;19931;-72
2023/09/29 05:28:56;;;;;;;;;;;;;;;18.20;79.81;99716.84;5072920;28;19927;-73
2023/09/29 05:31:22;;;;;;;;;;;;;;;18.18;80.25;99716.41;5076928;28;19948;-72
2023/09/29 05:33:48;;;;;;;;;;;;;;;18.35;79.03;99709.38;5073981;28;20062;-72
2023/09/29 05:36:13;;;;;;;;;;;;;;;18.36;78.97;99711.00;5084932;28;20155;-73
2023/09/29 05:38:38;;;;;;;;;;;;;;;18.12;79.89;99712.28;5088259;28;20314;-74
2023/09/29 05:41:04;;;;;;;;;;;;;;;18.33;79.44;99709.75;5080013;28;19917;-74
2023/09/29 05:43:30;;;;;;;;;;;;;;;18.50;78.42;99713.25;5074467;28;19916;-76
2023/09/29 05:45:55;;;;;;;;;;;;;;;18.57;78.42;99716.16;5081435;28;20680;-71
2023/09/29 05:48:20;;;;;;;;;;;;;;;18.66;77.81;99713.84;5088626;28;19923;-76
2023/09/29 05:50:46;;;;;;;;;;;;;;;18.68;77.48;99716.31;5093926;28;20378;-75
2023/09/29 05:53:11;;;;;;;;;;;;;;;18.75;76.92;99724.88;5081253;28;19916;-74
2023/09/29 05:55:37;;;;;;;;;;;;;;;18.56;77.19;99713.72;5093731;28;20370;-74
2023/09/29 05:58:02;;;;;;;;;;;;;;;18.63;77.53;99720.28;5080191;28;19973;-77
2023/09/29 06:00:28;;;;;;;;;;;;;;;18.60;76.84;99711.75;5073365;28;19966;-74
2023/09/29 06:02:53;;;;;;;;;;;;;;;18.76;75.75;99718.03;5076212;28;19925;-77
2023/09/29 06:05:19;;;;;;;;;;;;;;;18.72;75.76;99716.38;5076021;28;19920;-73
2023/09/29 06:07:45;;;;;;;;;;;;;;;18.86;74.84;99718.53;5077568;28;19960;-76
2023/09/29 06:10:10;;;;;;;;;;;;;;;18.91;73.96;99712.56;5075326;28;19916;-72
2023/09/29 06:12:37;;;;;;;;;;;;;;;19.11;72.88;99720.88;5074750;28;19916;-72
2023/09/29 06:15:02;;;;;;;;;;;;;;;19.14;72.22;99717.31;5082884;28;19920;-72
2023/09/29 06:17:27;;;;;;;;;;;;;;;19.13;72.53;99716.47;5074815;28;19927;-72
2023/09/29 06:19:53;;;;;;;;;;;;;;;19.18;70.90;99718.94;5070336;28;19970;-75
2023/09/29 06:22:18;;;;;;;;;;;;;;;19.13;71.56;99718.50;5069806;28;20342;-74
2023/09/29 06:24:44;;;;;;;;;;;;;;;19.25;72.14;99711.75;5069900;28;19975;-71
2023/09/29 06:27:12;;;;;;;;;;;;;;;19.27;71.78;99717.84;5082193;28;19923;-73
2023/09/29 06:29:40;;;;;;;;;;;;;;;19.48;71.22;99711.56;5084283;28;20302;-70
2023/09/29 06:32:08;;;;;;;;;;;;;;;19.66;70.26;99711.72;5086005;28;19916;-72
2023/09/29 06:34:34;;;;;;;;;;;;;;;19.73;67.91;99714.63;5087984;28;20031;-73
2023/09/29 06:36:59;;;;;;;;;;;;;;;19.78;67.87;99714.25;5079909;28;20370;-74
2023/09/29 06:39:24;;;;;;;;;;;;;;;19.93;67.63;99717.28;5078971;28;20433;-76
2023/09/29 06:41:49;;;;;;;;;;;;;;;20.11;67.65;99725.09;5069780;28;19916;-74
2023/09/29 06:44:15;;;;;;;;;;;;;;;20.25;67.52;99725.19;5086618;28;19961;-75
2023/09/29 06:46:40;;;;;;;;;;;;;;;20.45;66.94;99720.06;5087638;28;19950;-76
2023/09/29 06:49:06;;;;;;;;;;;;;;;20.55;65.71;99721.34;5083517;28;20383;-77
2023/09/29 06:51:33;;;;;;;;;;;;;;;20.48;64.67;99724.13;5073667;28;19916;-76
2023/09/29 06:53:58;;;;;;;;;;;;;;;20.62;63.26;99715.66;5073170;28;20397;-76
2023/09/29 06:56:23;;;;;;;;;;;;;;;20.75;63.38;99723.84;5087272;28;19924;-76
2023/09/29 06:58:49;;;;;;;;;;;;;;;20.81;62.69;99725.13;5081465;28;20035;-75
2023/09/29 07:01:14;;;;;;;;;;;;;;;20.97;60.93;99723.97;5079081;28;19936;-75
2023/09/29 07:03:39;;;;;;;;;;;;;;;21.03;61.45;99728.88;5083875;28;20018;-75
2023/09/29 07:06:05;;;;;;;;;;;;;;;21.29;59.66;99723.28;5071769;28;19928;-78
2023/09/29 07:08:31;;;;;;;;;;;;;;;21.30;57.92;99724.91;5069951;28;20318;-78
2023/09/29 07:10:56;;;;;;;;;;;;;;;21.69;56.09;99729.06;5071589;28;19917;-78
2023/09/29 07:13:21;;;;;;;;;;;;;;;21.72;55.79;99723.38;5071717;28;20006;-78
2023/09/29 07:15:47;;;;;;;;;;;;;;;21.81;54.63;99719.31;5071947;28;19912;-78
2023/09/29 07:18:13;;;;;;;;;;;;;;;21.92;54.23;99717.28;5071636;28;20007;-78
2023/09/29 07:20:40;;;;;;;;;;;;;;;21.98;54.25;99720.53;5081945;28;19917;-77
2023/09/29 07:23:08;;;;;;;;;;;;;;;21.93;53.87;99720.94;5073920;28;19962;-73
2023/09/29 07:25:34;;;;;;;;;;;;;;;22.01;53.73;99722.53;5070269;28;20126;-78
2023/09/29 07:27:59;;;;;;;;;;;;;;;22.15;54.20;99728.25;5071087;28;20379;-78
2023/09/29 07:30:25;;;;;;;;;;;;;;;22.15;53.41;99716.88;5070372;28;19917;-78
2023/09/29 07:32:50;;;;;;;;;;;;;;;22.18;52.04;99714.41;5071286;28;19912;-78
2023/09/29 07:35:15;;;;;;;;;;;;;;;22.23;50.40;99713.97;5071361;28;20310;-78
2023/09/29 07:37:41;;;;;;;;;;;;;;;22.24;51.34;99715.59;5071762;28;19977;-79
2023/09/29 07:40:07;;;;;;;;;;;;;;;22.56;50.21;99718.44;5071378;28;19916;-78
2023/09/29 07:42:32;;;;;;;;;;;;;;;22.94;49.04;99717.88;5070270;28;20395;-78
2023/09/29 07:44:58;;;;;;;;;;;;;;;23.05;47.52;99720.69;5071240;28;20033;-78
2023/09/29 07:47:23;;;;;;;;;;;;;;;23.03;45.58;99716.63;5071554;28;19916;-78
2023/09/29 07:49:48;;;;;;;;;;;;;;;23.12;44.93;99717.78;5085847;28;19916;-78
2023/09/29 07:52:14;;;;;;;;;;;;;;;23.22;43.59;99718.94;5071410;28;19920;-78
2023/09/29 07:54:39;;;;;;;;;;;;;;;23.32;43.18;99716.50;5075622;28;20313;-78
2023/09/29 07:57:04;;;;;;;;;;;;;;;23.39;42.88;99717.25;5084799;28;19920;-78
2023/09/29 07:59:29;;;;;;;;;;;;;;;23.72;43.31;99716.22;5079124;28;19920;-78
2023/09/29 08:01:57;;;;;;;;;;;;;;;23.56;42.03;99715.50;5072882;28;19917;-78
2023/09/29 08:04:23;;;;;;;;;;;;;;;23.37;42.49;99708.31;5073182;28;19999;-78
2023/09/29 08:06:48;;;;;;;;;;;;;;;23.54;41.83;99711.47;5076840;28;19952;-78
2023/09/29 08:09:13;;;;;;;;;;;;;;;23.57;41.14;99707.78;5079951;28;19928;-78
2023/09/29 08:11:40;;;;;;;;;;;;;;;23.60;39.19;99706.94;5076462;28;20357;-78
2023/09/29 08:14:06;;;;;;;;;;;;;;;23.75;40.29;99706.81;5077166;28;19950;-78
2023/09/29 08:16:31;;;;;;;;;;;;;;;23.83;39.03;99708.38;5079200;28;19919;-78
2023/09/29 08:18:57;;;;;;;;;;;;;;;23.78;39.34;99709.66;5080099;28;19945;-78
2023/09/29 08:21:22;;;;;;;;;;;;;;;23.97;38.87;99716.03;5089305;28;19916;-78
2023/09/29 08:23:47;;;;;;;;;;;;;;;24.09;38.01;99711.84;5086114;28;19973;-78
2023/09/29 08:26:12;;;;;;;;;;;;;;;24.41;35.82;99713.59;5074723;28;19920;-78
2023/09/29 08:28:38;;;;;;;;;;;;;;;24.60;36.65;99712.16;5082689;28;19916;-78
2023/09/29 08:31:12;;;;;;;;;;;;;;;24.52;37.58;99708.56;5093773;28;19970;-78
2023/09/29 08:33:38;;;;;;;;;;;;;;;24.59;36.81;99709.72;5095477;28;19912;-78
2023/09/29 08:36:03;;;;;;;;;;;;;;;24.57;36.39;99704.44;5094456;28;19920;-78
2023/09/29 08:38:28;;;;;;;;;;;;;;;24.60;36.46;99699.91;5093796;28;19915;-78
2023/09/29 08:40:55;;;;;;;;;;;;;;;24.62;35.59;99697.44;5095116;28;19916;-78
2023/09/29 08:43:21;;;;;;;;;;;;;;;24.56;35.67;99704.84;5083771;28;19971;-77
2023/09/29 08:45:47;;;;;;;;;;;;;;;24.60;35.20;99705.59;5087429;28;20037;-78
2023/09/29 08:48:13;;;;;;;;;;;;;;;24.63;34.34;99705.56;5078461;28;19919;-76
2023/09/29 08:50:40;;;;;;;;;;;;;;;24.80;34.56;99709.50;5090861;28;19920;-78
2023/09/29 08:53:06;;;;;;;;;;;;;;;24.79;34.88;99707.03;5074553;28;20395;-78
2023/09/29 08:55:31;;;;;;;;;;;;;;;24.89;34.81;99708.97;5073129;28;19955;-78
2023/09/29 08:57:57;;;;;;;;;;;;;;;25.13;35.60;99709.06;5084337;28;20015;-78
2023/09/29 09:00:23;;;;;;;;;;;;;;;25.06;34.17;99707.13;5074211;28;19963;-78
2023/09/29 09:02:48;;;;;;;;;;;;;;;25.09;33.50;99708.31;5084786;28;19939;-78
2023/09/29 09:05:17;;;;;;;;;;;;;;;25.28;32.88;99703.97;5073944;28;19924;-77
2023/09/29 09:07:43;;;;;;;;;;;;;;;25.48;32.80;99709.00;5079517;28;19920;-76
2023/09/29 09:10:10;;;;;;;;;;;;;;;25.59;32.16;99706.81;5091401;28;20378;-77
2023/09/29 09:12:36;;;;;;;;;;;;;;;25.42;31.25;99704.97;5074829;28;19923;-76
2023/09/29 09:15:05;;;;;;;;;;;;;;;25.71;30.37;99707.44;5071746;28;19917;-73
2023/09/29 09:17:31;;;;;;;;;;;;;;;25.70;31.44;99700.06;5082637;28;20342;-73
2023/09/29 09:19:56;;;;;;;;;;;;;;;25.53;31.47;99707.72;5075409;28;19917;-73
2023/09/29 09:22:24;;;;;;;;;;;;;;;25.90;31.32;99697.31;5075563;28;19920;-73
2023/09/29 09:24:51;;;;;;;;;;;;;;;26.03;30.73;99704.03;5072380;28;19963;-74
2023/09/29 09:27:17;;;;;;;;;;;;;;;26.15;31.04;99698.91;5073651;28;19958;-73
2023/09/29 09:29:44;;;;;;;;;;;;;;;26.30;29.21;99699.47;5091479;28;20459;-73
2023/09/29 09:32:14;;;;;;;;;;;;;;;26.32;28.03;99700.66;5089807;28;19966;-74
2023/09/29 09:34:41;;;;;;;;;;;;;;;26.26;28.33;99702.44;5075673;28;19923;-74
2023/09/29 09:37:08;;;;;;;;;;;;;;;26.65;30.10;99696.38;5082865;28;19999;-74
2023/09/29 09:39:34;;;;;;;;;;;;;;;26.79;29.53;99698.94;5093695;28;20420;-74
2023/09/29 09:41:59;;;;;;;;;;;;;;;26.68;28.79;99704.91;5090668;28;20011;-74
2023/09/29 09:44:28;;;;;;;;;;;;;;;26.88;29.37;99699.19;5090417;28;20401;-74
2023/09/29 09:46:57;;;;;;;;;;;;;;;26.74;27.66;99697.38;5079135;28;19917;-76
2023/09/29 09:49:24;;;;;;;;;;;;;;;27.01;28.51;99690.69;5088551;28;20320;-73
2023/09/29 09:51:52;;;;;;;;;;;;;;;27.26;28.39;99691.41;5081964;28;19923;-73
2023/09/29 09:54:19;;;;;;;;;;;;;;;27.35;26.57;99687.91;5080965;28;19924;-73
2023/09/29 09:57:00;;;;;;;;;;;;;;;27.32;26.30;99693.28;5082342;28;20019;-75
2023/09/29 09:59:27;;;;;;;;;;;;;;;27.79;25.90;99688.53;5083079;28;19917;-74
2023/09/29 10:01:54;;;;;;;;;;;;;;;28.03;26.67;99686.25;5074497;28;20364;-77
2023/09/29 10:04:20;;;;;;;;;;;;;;;27.22;26.21;99682.88;5068957;28;19970;-79
2023/09/29 10:06:45;;;;;;;;;;;;;;;27.58;25.69;99684.13;5073734;28;19920;-78
2023/09/29 10:09:11;;;;;;;;;;;;;;;27.86;25.52;99679.69;5071550;28;19931;-81
2023/09/29 10:11:44;;;;;;;;;;;;;;;27.24;25.16;99680.34;5076090;28;20723;-76
2023/09/29 10:14:09;;;;;;;;;;;;;;;27.23;26.29;99677.94;5087303;28;19922;-81
2023/09/29 10:16:35;;;;;;;;;;;;;;;27.12;26.17;99672.44;5080868;28;19920;-79
2023/09/29 10:19:05;;;;;;;;;;;;;;;26.91;25.79;99672.47;5074861;28;19924;-76
2023/09/29 10:21:39;;;;;;;;;;;;;;;27.28;25.90;99663.06;5069117;28;20330;-73
2023/09/29 10:24:05;;;;;;;;;;;;;;;27.81;25.06;99667.94;5068872;28;19943;-76
2023/09/29 10:26:41;;;;;;;;;;;;;;;27.78;25.52;99655.31;5069577;28;19924;-76
2023/09/29 10:29:09;;;;;;;;;;;;;;;27.57;24.96;99656.63;5076212;28;20437;-77
2023/09/29 10:31:35;;;;;;;;;;;;;;;28.35;25.83;99649.28;5076392;28;19931;-75
2023/09/29 10:34:01;;;;;;;;;;;;;;;28.68;24.46;99651.25;5086810;28;19924;-73
2023/09/29 10:36:28;;;;;;;;;;;;;;;28.17;23.62;99647.72;5073086;28;19989;-74
2023/09/29 10:38:57;;;;;;;;;;;;;;;27.84;24.05;99646.94;5077175;28;19916;-77
2023/09/29 10:41:23;;;;;;;;;;;;;;;27.93;23.82;99641.34;5081811;28;19943;-71
2023/09/29 10:43:49;;;;;;;;;;;;;;;28.51;23.96;99636.91;5084967;28;20370;-72
2023/09/29 10:46:18;;;;;;;;;;;;;;;28.87;23.34;99629.31;5080664;28;19943;-70
2023/09/29 10:48:47;;;;;;;;;;;;;;;28.73;23.46;99637.09;5086852;28;20306;-70
2023/09/29 10:51:25;;;;;;;;;;;;;;;28.80;22.68;99632.38;5079242;28;19921;-70
2023/09/29 10:53:51;;;;;;;;;;;;;;;28.58;23.89;99633.84;5085359;28;19920;-72
2023/09/29 10:56:20;;;;;;;;;;;;;;;28.57;23.72;99629.34;5075955;28;19920;-73
2023/09/29 10:58:46;;;;;;;;;;;;;;;28.67;23.75;99633.16;5075710;28;19920;-71
2023/09/29 11:01:17;;;;;;;;;;;;;;;28.59;23.75;99615.31;5075109;28;19924;-69
2023/09/29 11:03:43;;;;;;;;;;;;;;;28.54;23.78;99620.81;5074307;28;19917;-72
2023/09/29 11:06:15;;;;;;;;;;;;;;;28.48;24.58;99622.63;5066752;28;20361;-71
2023/09/29 11:08:44;;;;;;;;;;;;;;;28.68;23.92;99617.50;5077772;28;19927;-73
2023/09/29 11:11:09;;;;;;;;;;;;;;;28.58;24.29;99616.59;5077429;28;19935;-71
2023/09/29 11:13:37;;;;;;;;;;;;;;;28.60;24.07;99613.25;5069811;28;19920;-71
2023/09/29 11:16:04;;;;;;;;;;;;;;;28.95;23.67;99612.63;5078625;28;19942;-71
2023/09/29 11:18:29;;;;;;;;;;;;;;;28.61;24.00;99606.25;5085765;28;19934;-71
2023/09/29 11:20:56;;;;;;;;;;;;;;;28.54;24.12;99603.56;5085481;28;20011;-71
2023/09/29 11:23:22;;;;;;;;;;;;;;;28.37;23.65;99611.44;5068038;28;19923;-71
2023/09/29 11:25:47;;;;;;;;;;;;;;;28.89;23.66;99600.88;5068301;28;19928;-72
2023/09/29 11:28:13;;;;;;;;;;;;;;;28.30;23.69;99603.84;5072137;28;19920;-72
2023/09/29 11:30:39;;;;;;;;;;;;;;;28.51;23.72;99598.72;5075973;28;19959;-72
2023/09/29 11:33:05;;;;;;;;;;;;;;;28.33;23.70;99599.25;5074112;28;19984;-71
2023/09/29 11:35:30;;;;;;;;;;;;;;;28.72;23.59;99592.34;5074690;28;19920;-76
2023/09/29 11:37:55;;;;;;;;;;;;;;;28.86;23.85;99596.06;5071935;28;19926;-76
2023/09/29 11:40:21;;;;;;;;;;;;;;;29.16;22.58;99593.88;5072873;28;20264;-73
2023/09/29 11:42:46;;;;;;;;;;;;;;;29.14;23.38;99590.66;5075163;28;19930;-73
2023/09/29 11:45:11;;;;;;;;;;;;;;;29.62;23.20;99601.44;5074700;28;19929;-74
2023/09/29 11:47:40;;;;;;;;;;;;;;;29.19;22.70;99583.50;5079294;28;19916;-73
2023/09/29 11:50:08;;;;;;;;;;;;;;;29.25;23.46;99585.34;5080121;28;19966;-73
2023/09/29 11:52:34;;;;;;;;;;;;;;;29.69;22.44;99589.69;5085649;28;20408;-71
2023/09/29 11:54:59;;;;;;;;;;;;;;;30.07;22.21;99577.25;5081663;28;20015;-72
2023/09/29 11:57:25;;;;;;;;;;;;;;;30.20;21.60;99579.25;5078750;28;20035;-71
2023/09/29 11:59:50;;;;;;;;;;;;;;;29.93;22.29;99577.75;5080815;28;19950;-71
2023/09/29 12:02:15;;;;;;;;;;;;;;;30.31;22.04;99573.91;5079925;28;19916;-72
2023/09/29 12:04:40;;;;;;;;;;;;;;;30.47;21.71;99575.78;5066837;28;19924;-72
2023/09/29 12:07:06;;;;;;;;;;;;;;;30.61;21.71;99576.50;5075293;28;19920;-71
2023/09/29 12:09:31;;;;;;;;;;;;;;;30.80;21.80;99569.56;5085002;28;20389;-73
2023/09/29 12:12:00;;;;;;;;;;;;;;;30.86;22.85;99566.06;5070721;28;19966;-73
2023/09/29 12:14:26;;;;;;;;;;;;;;;30.65;21.40;99560.69;5071323;28;20405;-74
2023/09/29 12:16:53;;;;;;;;;;;;;;;30.56;21.93;99563.47;5068705;28;19920;-72
2023/09/29 12:19:20;;;;;;;;;;;;;;;30.98;21.61;99555.69;5075089;28;19919;-73
2023/09/29 12:21:45;;;;;;;;;;;;;;;30.84;22.46;99563.66;5070689;28;19946;-72
2023/09/29 12:24:11;;;;;;;;;;;;;;;30.87;20.67;99561.91;5078391;28;19931;-69
2023/09/29 12:26:36;;;;;;;;;;;;;;;31.13;20.42;99550.91;5083948;28;19920;-69
2023/09/29 12:29:05;;;;;;;;;;;;;;;31.42;21.28;99554.72;5085205;28;20049;-68
2023/09/29 12:31:30;;;;;;;;;;;;;;;31.69;20.53;99551.06;5071196;28;20363;-69
2023/09/29 12:33:56;;;;;;;;;;;;;;;31.47;21.50;99552.00;5084886;28;19966;-69
2023/09/29 12:36:22;;;;;;;;;;;;;;;31.37;21.02;99538.81;5076116;28;20402;-69
2023/09/29 12:38:48;;;;;;;;;;;;;;;31.41;20.85;99539.47;5070454;28;19916;-69
2023/09/29 12:41:15;;;;;;;;;;;;;;;31.32;20.86;99542.34;5071486;28;19912;-69